Time;durP1;ratioP1;P1;durP2;ratioP2;P2;SDS_P1;SDS_P2;PMS_P1;PMS_P2;Temp;Humidity;BMP_temperature;BMP_pressure;BME280_temperature;BME280_humidity;BME280_pressure;Samples;Min_cycle;Max_cycle;Signal;HPM_P1;HPM_P2
2023/01/25 00:01:54;;;;;;;9.50;4.47;;;1.40;99.90;;;;;;10248437;23;20009;-81
2023/01/25 00:06:00;;;;;;;4.97;3.05;;;1.30;99.90;;;;;;10249438;23;20189;-80
2023/01/25 00:10:00;;;;;;;10.20;5.15;;;1.40;99.90;;;;;;10222492;23;20068;-81
2023/01/25 00:14:01;;;;;;;9.82;3.90;;;1.30;99.90;;;;;;10219993;23;20031;-82
2023/01/25 00:18:01;;;;;;;9.35;4.85;;;1.30;99.90;;;;;;10221662;23;20320;-80
2023/01/25 00:22:02;;;;;;;8.15;4.07;;;1.30;99.90;;;;;;10248716;23;19998;-81
2023/01/25 00:26:02;;;;;;;6.35;3.55;;;1.30;99.90;;;;;;10222010;23;20108;-81
2023/01/25 00:30:03;;;;;;;8.65;4.07;;;1.30;99.90;;;;;;10224892;23;20083;-81
2023/01/25 00:34:25;;;;;;;12.48;5.55;;;1.30;99.90;;;;;;10223075;23;20112;-80
2023/01/25 00:38:33;;;;;;;14.02;5.28;;;1.30;99.90;;;;;;10222541;23;20015;-81
2023/01/25 00:42:33;;;;;;;7.00;3.10;;;1.30;99.90;;;;;;10251770;23;20052;-80
2023/01/25 00:46:34;;;;;;;8.48;4.18;;;1.20;99.90;;;;;;10223640;23;20031;-80
2023/01/25 00:50:36;;;;;;;9.82;4.25;;;1.20;99.90;;;;;;10248118;23;20012;-82
2023/01/25 00:54:37;;;;;;;4.72;2.60;;;1.20;99.90;;;;;;10249162;23;20009;-80
2023/01/25 00:58:39;;;;;;;6.50;3.92;;;1.20;99.90;;;;;;10221700;23;20036;-80
2023/01/25 01:02:40;;;;;;;12.73;6.45;;;1.20;99.90;;;;;;10221215;23;20081;-81
2023/01/25 01:06:41;;;;;;;4.93;3.33;;;1.20;99.90;;;;;;10221245;23;20069;-81
2023/01/25 01:10:42;;;;;;;7.82;3.72;;;1.20;99.90;;;;;;10221823;23;20230;-82
2023/01/25 01:14:42;;;;;;;11.18;5.95;;;1.20;99.90;;;;;;10225230;23;20032;-80
2023/01/25 01:18:44;;;;;;;14.70;6.38;;;1.20;99.90;;;;;;10227065;23;20005;-81
2023/01/25 01:22:45;;;;;;;9.57;4.38;;;1.20;99.90;;;;;;10227108;23;20316;-81
2023/01/25 01:26:46;;;;;;;6.80;3.28;;;1.20;99.90;;;;;;10226252;23;20078;-82
2023/01/25 01:30:46;;;;;;;6.80;3.15;;;1.30;99.90;;;;;;10226028;23;20036;-82
2023/01/25 01:34:47;;;;;;;10.20;4.90;;;1.20;99.90;;;;;;10223855;23;20106;-81
2023/01/25 01:38:48;;;;;;;12.77;5.75;;;1.20;99.90;;;;;;10249929;23;20020;-82
2023/01/25 01:43:00;;;;;;;3.22;1.50;;;1.20;99.90;;;;;;10223827;23;20001;-82
2023/01/25 01:47:01;;;;;;;1.58;1.20;;;1.20;99.90;;;;;;10225079;23;20009;-80
2023/01/25 01:51:19;;;;;;;13.13;6.85;;;1.20;99.90;;;;;;10253365;23;20048;-81
2023/01/25 01:55:23;;;;;;;14.52;6.45;;;1.20;99.90;;;;;;10225724;23;20009;-81
2023/01/25 01:59:29;;;;;;;5.00;2.05;;;1.20;99.90;;;;;;10222684;23;20001;-80
2023/01/25 02:03:30;;;;;;;14.50;5.97;;;1.20;99.90;;;;;;10223422;23;20001;-81
2023/01/25 02:07:36;;;;;;;12.43;6.22;;;1.20;99.90;;;;;;10222475;23;20155;-81
2023/01/25 02:11:38;;;;;;;6.30;3.50;;;1.20;99.90;;;;;;10226077;23;20005;-82
2023/01/25 02:15:48;;;;;;;10.60;5.63;;;1.20;99.90;;;;;;10224452;23;20006;-82
2023/01/25 02:20:00;;;;;;;11.13;5.30;;;1.20;99.90;;;;;;10221544;23;20005;-81
2023/01/25 02:24:14;;;;;;;13.25;6.53;;;1.20;99.90;;;;;;10222773;23;20013;-82
2023/01/25 02:28:35;;;;;;;5.13;2.40;;;1.30;99.90;;;;;;10251272;23;20057;-82
2023/01/25 02:32:35;;;;;;;;;;;1.30;99.90;;;;;;10222971;23;20309;-81
2023/01/25 02:36:36;;;;;;;4.43;2.25;;;1.30;99.90;;;;;;10247946;23;19927;-81
2023/01/25 02:40:51;;;;;;;5.38;1.95;;;1.30;99.90;;;;;;10218468;23;20016;-80
2023/01/25 02:44:51;;;;;;;5.50;2.83;;;1.30;99.90;;;;;;10244739;23;20512;-80
2023/01/25 02:48:55;;;;;;;9.38;3.72;;;1.20;99.90;;;;;;10216641;23;20001;-80
2023/01/25 02:52:56;;;;;;;12.48;5.53;;;1.10;99.90;;;;;;10247497;23;20399;-81
2023/01/25 02:56:56;;;;;;;5.97;2.72;;;1.10;99.90;;;;;;10220514;23;20017;-80
2023/01/25 03:00:57;;;;;;;7.72;4.10;;;1.10;99.90;;;;;;10248879;23;20009;-81
2023/01/25 03:04:58;;;;;;;3.65;3.00;;;1.10;99.90;;;;;;10215869;23;20059;-80
2023/01/25 03:08:59;;;;;;;6.35;3.22;;;1.00;99.90;;;;;;10215015;23;20467;-80
2023/01/25 03:12:59;;;;;;;5.30;3.08;;;1.00;99.90;;;;;;10216651;23;20016;-81
2023/01/25 03:17:00;;;;;;;3.67;2.03;;;1.00;99.90;;;;;;10244924;23;20458;-81
2023/01/25 03:21:20;;;;;;;5.68;3.15;;;1.00;99.90;;;;;;10218119;23;20020;-81
2023/01/25 03:25:21;;;;;;;;;;;0.90;99.90;;;;;;10216607;23;20072;-79
2023/01/25 03:29:21;;;;;;;10.98;4.82;;;0.90;99.90;;;;;;10215393;23;19900;-81
2023/01/25 03:33:22;;;;;;;5.45;3.17;;;0.80;99.90;;;;;;10215659;23;20015;-82
2023/01/25 03:37:22;;;;;;;6.72;3.55;;;0.90;99.90;;;;;;10219521;23;20436;-82
2023/01/25 03:41:23;;;;;;;8.27;4.35;;;0.90;99.90;;;;;;10258434;23;20008;-78
2023/01/25 03:45:23;;;;;;;5.13;2.35;;;0.90;99.90;;;;;;10260599;23;20048;-79
2023/01/25 03:49:24;;;;;;;4.82;3.08;;;0.90;99.90;;;;;;10231648;23;20590;-79
2023/01/25 03:53:30;;;;;;;9.23;4.65;;;1.00;99.90;;;;;;10210262;23;20008;-78
2023/01/25 03:57:30;;;;;;;9.73;4.78;;;1.00;99.90;;;;;;10210139;23;20005;-79
2023/01/25 04:01:31;;;;;;;7.72;3.15;;;1.00;99.90;;;;;;10210309;23;20358;-78
2023/01/25 04:05:31;;;;;;;11.57;5.65;;;0.90;99.90;;;;;;10209976;23;20076;-79
2023/01/25 04:09:32;;;;;;;8.50;3.83;;;0.90;99.90;;;;;;10210079;23;20008;-79
2023/01/25 04:13:36;;;;;;;3.40;2.25;;;0.90;99.90;;;;;;10210499;23;20107;-78
2023/01/25 04:17:37;;;;;;;8.52;3.85;;;0.80;99.90;;;;;;10210291;23;20015;-78
2023/01/25 04:21:37;;;;;;;3.05;1.65;;;0.90;99.90;;;;;;10210712;23;20205;-79
2023/01/25 04:25:38;;;;;;;8.50;4.18;;;1.00;99.90;;;;;;10210194;23;20083;-79
2023/01/25 04:29:39;;;;;;;3.53;2.40;;;1.00;99.90;;;;;;10210498;23;20342;-79
2023/01/25 04:33:39;;;;;;;10.00;4.32;;;1.00;99.90;;;;;;10236890;23;20008;-78
2023/01/25 04:37:40;;;;;;;8.50;2.85;;;0.90;99.90;;;;;;10206254;23;20060;-79
2023/01/25 04:41:40;;;;;;;10.90;5.25;;;0.90;99.90;;;;;;10232869;23;20004;-79
2023/01/25 04:45:41;;;;;;;7.00;4.25;;;0.90;99.90;;;;;;10207312;23;20205;-79
2023/01/25 04:49:41;;;;;;;11.60;5.05;;;0.80;99.90;;;;;;10207070;23;20009;-79
2023/01/25 04:53:42;;;;;;;2.40;1.45;;;0.80;99.90;;;;;;10208183;23;20163;-79
2023/01/25 04:57:43;;;;;;;13.05;5.95;;;0.80;99.90;;;;;;10207469;23;20013;-79
2023/01/25 05:01:43;;;;;;;6.28;3.22;;;0.80;99.90;;;;;;10207660;23;20391;-79
2023/01/25 05:05:46;;;;;;;9.27;4.50;;;0.80;99.90;;;;;;10208908;23;20024;-79
2023/01/25 05:09:47;;;;;;;10.23;4.25;;;0.70;99.90;;;;;;10235367;23;20001;-79
2023/01/25 05:13:47;;;;;;;8.10;2.50;;;0.80;99.90;;;;;;10204697;23;20474;-79
2023/01/25 05:17:48;;;;;;;14.23;6.45;;;0.70;99.90;;;;;;10233321;23;20005;-79
2023/01/25 05:21:57;;;;;;;19.05;6.45;;;0.80;99.90;;;;;;10208173;23;20385;-79
2023/01/25 05:30:17;;;;;;;4.82;2.58;;;0.70;99.90;;;;;;10234285;23;20081;-79
2023/01/25 05:34:17;;;;;;;4.50;2.55;;;0.70;99.90;;;;;;10234334;23;20005;-80
2023/01/25 05:38:18;;;;;;;8.60;4.18;;;0.70;99.90;;;;;;10205543;23;20028;-80
2023/01/25 05:42:18;;;;;;;12.93;5.32;;;0.70;99.90;;;;;;10230130;23;20005;-79
2023/01/25 05:46:19;;;;;;;6.95;2.53;;;0.70;99.90;;;;;;10203321;23;20459;-79
2023/01/25 05:50:20;;;;;;;7.40;2.35;;;0.70;99.90;;;;;;10203653;23;20009;-79
2023/01/25 05:54:21;;;;;;;5.45;2.70;;;0.70;99.90;;;;;;10202858;23;20009;-79
2023/01/25 05:58:22;;;;;;;8.35;4.15;;;0.80;99.90;;;;;;10228463;23;20005;-78
2023/01/25 06:02:22;;;;;;;8.80;3.65;;;0.80;99.90;;;;;;10205405;23;20064;-78
2023/01/25 06:06:23;;;;;;;8.35;3.97;;;0.80;99.90;;;;;;10206475;23;20036;-79
2023/01/25 06:10:23;;;;;;;6.60;3.28;;;0.80;99.90;;;;;;10232760;23;20025;-79
2023/01/25 06:14:24;;;;;;;10.07;5.00;;;0.70;99.90;;;;;;10232337;23;20001;-79
2023/01/25 06:18:25;;;;;;;2.28;2.00;;;0.80;99.90;;;;;;10206202;23;20004;-79
2023/01/25 06:22:25;;;;;;;5.97;3.75;;;0.80;99.90;;;;;;10206721;23;19997;-79
2023/01/25 06:26:26;;;;;;;11.40;4.72;;;0.80;99.90;;;;;;10205870;23;20012;-79
2023/01/25 06:30:26;;;;;;;8.73;4.38;;;0.80;99.90;;;;;;10232211;23;20011;-79
2023/01/25 06:34:27;;;;;;;9.63;4.97;;;0.80;99.90;;;;;;10206250;23;20009;-79
2023/01/25 06:38:28;;;;;;;7.68;3.67;;;0.80;99.90;;;;;;10232463;23;20451;-79
2023/01/25 06:42:29;;;;;;;7.13;3.28;;;0.90;99.90;;;;;;10206105;23;20121;-79
2023/01/25 06:46:31;;;;;;;10.85;5.18;;;0.90;99.90;;;;;;10205924;23;20020;-79
2023/01/25 06:50:32;;;;;;;6.43;2.05;;;0.80;99.90;;;;;;10231876;23;20015;-79
2023/01/25 06:54:33;;;;;;;9.27;4.47;;;0.80;99.90;;;;;;10205606;23;20020;-79
2023/01/25 06:58:33;;;;;;;11.43;4.70;;;0.80;99.90;;;;;;10205395;23;20009;-79
2023/01/25 07:02:35;;;;;;;9.75;4.88;;;0.80;99.90;;;;;;10205761;23;20084;-79
2023/01/25 07:06:35;;;;;;;5.03;2.65;;;1.00;99.90;;;;;;10205079;23;20009;-79
2023/01/25 07:10:36;;;;;;;10.95;4.18;;;0.90;99.90;;;;;;10204841;23;20103;-79
2023/01/25 07:14:36;;;;;;;8.55;3.95;;;0.80;99.90;;;;;;10204840;23;20494;-79
2023/01/25 07:18:37;;;;;;;9.95;4.35;;;0.80;99.90;;;;;;10205391;23;20040;-79
2023/01/25 07:22:37;;;;;;;9.38;4.72;;;0.80;99.90;;;;;;10231975;23;20001;-79
2023/01/25 07:26:38;;;;;;;10.88;4.55;;;0.90;99.90;;;;;;10231784;23;20083;-79
2023/01/25 07:30:40;;;;;;;16.85;5.95;;;0.80;99.90;;;;;;10231357;23;20164;-79
2023/01/25 07:34:40;;;;;;;14.88;6.55;;;1.00;99.90;;;;;;10232027;23;20056;-79
2023/01/25 07:38:41;;;;;;;11.68;6.38;;;1.00;99.90;;;;;;10204998;23;20040;-79
2023/01/25 07:42:41;;;;;;;2.72;1.70;;;0.90;99.90;;;;;;10205795;23;20005;-79
2023/01/25 07:46:42;;;;;;;14.35;5.97;;;0.90;99.90;;;;;;10205565;23;20103;-79
2023/01/25 07:50:48;;;;;;;5.93;3.45;;;0.80;99.90;;;;;;10205174;23;20359;-79
2023/01/25 07:54:48;;;;;;;10.82;5.20;;;0.70;99.90;;;;;;10204865;23;20039;-79
2023/01/25 07:58:51;;;;;;;6.35;3.08;;;0.90;99.90;;;;;;10204575;23;20451;-79
2023/01/25 08:02:52;;;;;;;9.65;4.03;;;1.00;99.90;;;;;;10230544;23;20459;-79
2023/01/25 08:06:52;;;;;;;12.27;5.13;;;0.90;99.90;;;;;;10204392;23;20064;-79
2023/01/25 08:10:53;;;;;;;6.68;2.33;;;0.90;99.90;;;;;;10231172;23;20012;-79
2023/01/25 08:14:53;;;;;;;13.98;5.47;;;0.90;99.90;;;;;;10230768;23;20009;-79
2023/01/25 08:18:59;;;;;;;11.05;4.13;;;0.80;99.90;;;;;;10204914;23;20005;-79
2023/01/25 08:23:00;;;;;;;12.98;5.55;;;1.00;99.90;;;;;;10205001;23;20013;-79
2023/01/25 08:27:00;;;;;;;6.25;3.75;;;1.00;99.90;;;;;;10230895;23;20470;-78
2023/01/25 08:31:10;;;;;;;8.20;3.85;;;1.00;99.90;;;;;;10230715;23;20005;-79
2023/01/25 08:35:10;;;;;;;7.82;3.65;;;1.10;99.90;;;;;;10230849;23;20009;-79
2023/01/25 08:39:11;;;;;;;4.25;2.40;;;1.00;99.90;;;;;;10230536;23;20514;-78
2023/01/25 08:43:12;;;;;;;5.70;2.50;;;1.00;99.90;;;;;;10204757;23;20039;-78
2023/01/25 08:47:12;;;;;;;5.28;2.28;;;1.00;99.90;;;;;;10204555;23;20016;-79
2023/01/25 08:51:15;;;;;;;12.98;5.80;;;1.00;99.90;;;;;;10230590;23;20012;-79
2023/01/25 08:55:16;;;;;;;4.60;1.63;;;1.00;99.90;;;;;;10204542;23;20013;-79
2023/01/25 08:59:16;;;;;;;2.75;2.03;;;1.10;99.90;;;;;;10229559;23;20045;-79
2023/01/25 09:03:17;;;;;;;1.75;1.13;;;1.10;99.90;;;;;;10203774;23;20071;-79
2023/01/25 09:07:17;;;;;;;8.95;4.28;;;1.00;99.90;;;;;;10204884;23;20024;-79
2023/01/25 09:11:20;;;;;;;5.40;2.85;;;0.90;99.90;;;;;;10204163;23;20009;-79
2023/01/25 09:15:24;;;;;;;5.45;2.40;;;0.90;99.90;;;;;;10230457;23;20005;-79
2023/01/25 09:19:24;;;;;;;9.60;3.92;;;0.90;99.90;;;;;;10204205;23;20034;-79
2023/01/25 09:23:25;;;;;;;5.95;2.15;;;0.90;99.90;;;;;;10230519;23;20110;-79
2023/01/25 09:27:26;;;;;;;8.13;3.35;;;0.90;99.90;;;;;;10230459;23;20099;-78
2023/01/25 09:31:28;;;;;;;9.65;4.88;;;1.00;99.90;;;;;;10203908;23;20248;-79
2023/01/25 09:35:29;;;;;;;9.52;2.70;;;0.90;99.90;;;;;;10231616;23;20080;-79
2023/01/25 09:39:30;;;;;;;4.95;2.40;;;1.00;99.90;;;;;;10207128;23;20088;-79
2023/01/25 09:44:01;;;;;;;6.50;3.47;;;0.90;99.90;;;;;;10233605;23;20248;-79
2023/01/25 09:48:31;;;;;;;12.70;4.95;;;1.00;99.90;;;;;;10207255;23;20031;-79
2023/01/25 09:52:58;;;;;;;2.23;1.70;;;1.10;99.90;;;;;;10233464;23;20041;-79
2023/01/25 09:56:59;;;;;;;9.20;4.15;;;1.30;99.90;;;;;;10233532;23;20356;-78
2023/01/25 10:01:13;;;;;;;8.90;4.25;;;1.00;99.90;;;;;;10206279;23;20001;-79
2023/01/25 10:05:23;;;;;;;6.63;3.35;;;1.00;99.90;;;;;;10207080;23;20351;-79
2023/01/25 10:09:38;;;;;;;7.85;3.90;;;1.10;99.90;;;;;;10232742;23;20059;-79
2023/01/25 10:13:39;;;;;;;9.25;4.50;;;0.90;99.90;;;;;;10205648;23;20017;-79
2023/01/25 10:17:40;;;;;;;9.10;4.28;;;0.90;99.90;;;;;;10206054;23;20012;-79
2023/01/25 10:21:40;;;;;;;8.27;3.42;;;1.00;99.90;;;;;;10206295;23;20008;-78
2023/01/25 10:26:13;;;;;;;4.22;2.97;;;1.20;99.90;;;;;;10206300;23;20008;-79
2023/01/25 10:30:25;;;;;;;12.43;5.20;;;1.20;99.90;;;;;;10216165;23;20063;-79
2023/01/25 10:34:31;;;;;;;8.40;2.67;;;1.20;99.90;;;;;;10206183;23;20005;-78
2023/01/25 10:38:47;;;;;;;4.82;3.13;;;1.40;99.90;;;;;;10232347;23;20012;-79
2023/01/25 10:43:00;;;;;;;6.05;3.30;;;1.30;99.90;;;;;;10233455;23;20344;-77
2023/01/25 10:47:13;;;;;;;2.45;1.60;;;1.00;99.90;;;;;;10207692;23;20013;-79
2023/01/25 10:51:34;;;;;;;6.03;2.83;;;0.90;99.90;;;;;;10206061;23;20009;-79
2023/01/25 10:55:34;;;;;;;;;;;0.80;99.90;;;;;;10206250;23;20004;-78
2023/01/25 10:59:36;;;;;;;2.70;1.92;;;0.80;99.90;;;;;;10205833;23;19911;-79
2023/01/25 11:03:43;;;;;;;5.78;3.20;;;1.00;99.90;;;;;;10232281;23;20029;-79
2023/01/25 11:07:50;;;;;;;13.13;4.68;;;1.00;99.90;;;;;;10234451;23;20001;-78
2023/01/25 11:11:56;;;;;;;8.95;3.08;;;0.90;99.90;;;;;;10234322;23;20128;-78
2023/01/25 11:16:00;;;;;;;7.40;1.38;;;0.80;99.90;;;;;;10208070;23;20009;-78
2023/01/25 11:20:18;;;;;;;11.88;5.20;;;0.80;99.90;;;;;;10207693;23;20005;-78
2023/01/25 11:24:19;;;;;;;8.77;3.53;;;0.90;99.90;;;;;;10233280;23;20001;-78
2023/01/25 11:28:22;;;;;;;7.20;4.18;;;0.80;99.90;;;;;;10234196;23;20136;-78
2023/01/25 11:32:24;;;;;;;12.30;4.88;;;0.90;99.90;;;;;;10233977;23;20317;-78
2023/01/25 11:36:41;;;;;;;9.95;3.53;;;0.90;99.90;;;;;;10207226;23;20009;-78
2023/01/25 11:40:47;;;;;;;7.03;2.17;;;1.00;99.90;;;;;;10207027;23;20040;-78
2023/01/25 11:45:24;;;;;;;13.07;4.20;;;1.10;99.90;;;;;;10207706;23;20092;-78
2023/01/25 11:49:50;;;;;;;12.65;4.05;;;1.10;99.90;;;;;;10233500;23;20008;-78
2023/01/25 11:54:18;;;;;;;4.50;3.00;;;1.00;99.90;;;;;;10207483;23;20005;-78
2023/01/25 11:58:21;;;;;;;4.18;2.10;;;0.90;99.90;;;;;;10207289;23;20009;-78
2023/01/25 12:02:40;;;;;;;7.55;3.78;;;0.90;99.90;;;;;;10207326;23;20084;-78
2023/01/25 12:06:41;;;;;;;6.87;3.77;;;0.80;99.90;;;;;;10233932;23;20001;-78
2023/01/25 12:10:57;;;;;;;10.35;4.53;;;0.70;99.90;;;;;;10206923;23;20447;-77
2023/01/25 12:15:24;;;;;;;4.30;2.05;;;0.70;99.90;;;;;;10234067;23;20023;-77
2023/01/25 12:19:58;;;;;;;4.35;2.42;;;0.70;99.90;;;;;;10233880;23;20084;-78
2023/01/25 12:24:33;;;;;;;2.22;1.33;;;0.70;99.90;;;;;;10225268;23;20517;-78
2023/01/25 12:28:39;;;;;;;6.65;3.05;;;0.80;99.90;;;;;;10233545;23;20096;-77
2023/01/25 12:32:49;;;;;;;13.70;4.10;;;0.80;99.90;;;;;;10207372;23;20332;-78
2023/01/25 12:36:50;;;;;;;9.43;4.47;;;0.70;99.90;;;;;;10207261;23;20020;-78
2023/01/25 12:40:57;;;;;;;10.98;4.15;;;0.70;99.90;;;;;;10206800;23;20013;-78
2023/01/25 12:45:33;;;;;;;6.68;2.92;;;0.90;99.90;;;;;;10207288;23;20013;-77
2023/01/25 12:49:40;;;;;;;9.68;4.25;;;0.90;99.90;;;;;;10180640;23;20016;-78
2023/01/25 12:53:48;;;;;;;8.43;2.80;;;0.90;99.90;;;;;;10206339;23;20023;-78
2023/01/25 12:58:05;;;;;;;15.05;5.95;;;0.90;99.90;;;;;;10207041;23;20005;-78
2023/01/25 13:02:42;;;;;;;5.57;3.30;;;0.90;99.90;;;;;;10204997;23;20060;-77
2023/01/25 13:07:06;;;;;;;6.80;3.67;;;1.00;99.90;;;;;;10205915;23;20013;-78
2023/01/25 13:11:19;;;;;;;10.73;4.15;;;0.90;99.90;;;;;;10232494;23;20444;-77
2023/01/25 13:15:38;;;;;;;7.40;3.03;;;0.80;99.90;;;;;;10206785;23;20013;-77
2023/01/25 13:19:41;;;;;;;4.45;2.42;;;0.80;99.90;;;;;;10206953;23;20012;-77
2023/01/25 13:23:46;;;;;;;4.88;2.08;;;0.70;99.90;;;;;;10233188;23;20060;-77
2023/01/25 13:27:46;;;;;;;0.40;0.40;;;0.70;99.90;;;;;;10206739;23;20090;-78
2023/01/25 13:31:51;;;;;;;6.82;2.97;;;0.70;99.90;;;;;;10205757;23;20009;-78
2023/01/25 13:35:52;;;;;;;9.32;3.67;;;0.80;99.90;;;;;;10232350;23;20005;-78
2023/01/25 13:39:54;;;;;;;8.23;3.42;;;0.90;99.90;;;;;;10206289;23;20015;-77
2023/01/25 13:44:16;;;;;;;11.07;5.28;;;0.90;99.90;;;;;;10232737;23;20387;-78
2023/01/25 13:48:23;;;;;;;7.32;3.53;;;1.00;99.90;;;;;;10206447;23;20347;-77
2023/01/25 13:52:25;;;;;;;3.30;2.10;;;1.00;99.90;;;;;;10206462;23;20380;-77
2023/01/25 13:56:29;;;;;;;10.80;5.35;;;0.90;99.90;;;;;;10206133;23;20096;-77
2023/01/25 14:00:30;;;;;;;8.70;4.35;;;0.70;99.90;;;;;;10205925;23;20005;-77
2023/01/25 14:04:31;;;;;;;16.65;6.95;;;0.60;99.90;;;;;;10232516;23;20001;-78
2023/01/25 14:08:32;;;;;;;11.57;3.30;;;0.70;99.90;;;;;;10232645;23;20056;-78
2023/01/25 14:12:37;;;;;;;4.57;2.53;;;0.80;99.90;;;;;;10232526;23;20325;-78
2023/01/25 14:16:37;;;;;;;8.48;3.90;;;0.90;99.90;;;;;;10205712;23;20013;-78
2023/01/25 14:20:38;;;;;;;10.25;4.13;;;0.80;99.90;;;;;;10206995;23;20321;-78
2023/01/25 14:24:39;;;;;;;2.65;1.75;;;0.90;99.90;;;;;;10209358;23;20452;-78
2023/01/25 14:28:44;;;;;;;13.43;5.68;;;0.80;99.90;;;;;;10208956;23;20009;-78
2023/01/25 14:32:45;;;;;;;7.70;3.30;;;0.70;99.90;;;;;;10210005;23;20005;-77
2023/01/25 14:36:46;;;;;;;12.18;4.43;;;0.80;99.90;;;;;;10209543;23;20099;-78
2023/01/25 14:40:48;;;;;;;12.60;4.55;;;0.70;99.90;;;;;;10209080;23;20021;-78
2023/01/25 14:44:48;;;;;;;5.78;2.67;;;0.70;99.90;;;;;;10236200;23;20012;-77
2023/01/25 14:48:50;;;;;;;17.55;4.72;;;0.60;99.90;;;;;;10209507;23;20009;-79
2023/01/25 14:52:51;;;;;;;3.05;1.60;;;0.70;99.90;;;;;;10209967;23;20005;-79
2023/01/25 14:57:00;;;;;;;14.98;3.65;;;0.60;99.90;;;;;;10209911;23;20013;-78
2023/01/25 15:01:01;;;;;;;9.90;4.88;;;0.50;99.90;;;;;;10235525;23;20016;-78
2023/01/25 15:05:06;;;;;;;6.20;2.28;;;0.70;99.90;;;;;;10235700;23;20072;-78
2023/01/25 15:09:28;;;;;;;2.58;1.35;;;0.70;99.90;;;;;;10235936;23;20339;-79
2023/01/25 15:13:29;;;;;;;7.03;2.90;;;0.70;99.90;;;;;;10235899;23;20009;-79
2023/01/25 15:17:42;;;;;;;8.40;4.28;;;0.70;99.90;;;;;;10209775;23;20056;-78
2023/01/25 15:21:42;;;;;;;11.73;4.50;;;0.60;99.90;;;;;;10208963;23;20060;-79
2023/01/25 15:25:54;;;;;;;8.80;3.92;;;0.60;99.90;;;;;;10235778;23;20005;-79
2023/01/25 15:29:55;;;;;;;2.35;1.65;;;0.60;99.90;;;;;;10208096;23;20005;-80
2023/01/25 15:33:57;;;;;;;7.22;3.25;;;0.60;99.90;;;;;;10206799;23;20347;-79
2023/01/25 15:37:57;;;;;;;11.52;4.57;;;0.40;99.90;;;;;;10206227;23;20020;-78
2023/01/25 15:41:58;;;;;;;6.80;3.30;;;0.40;99.90;;;;;;10205938;23;20404;-78
2023/01/25 15:45:59;;;;;;;10.32;4.10;;;0.50;99.90;;;;;;10205979;23;20009;-77
2023/01/25 15:50:00;;;;;;;8.35;4.22;;;0.40;99.90;;;;;;10206908;23;20005;-80
2023/01/25 15:54:01;;;;;;;11.00;3.65;;;0.40;99.90;;;;;;10234330;23;20136;-81
2023/01/25 15:58:02;;;;;;;13.88;5.25;;;0.50;99.90;;;;;;10207174;23;20019;-81
2023/01/25 16:02:03;;;;;;;10.95;5.30;;;0.40;99.90;;;;;;10236216;23;20368;-80
2023/01/25 16:06:19;;;;;;;9.48;4.28;;;0.50;99.90;;;;;;10207194;23;20006;-81
2023/01/25 16:10:24;;;;;;;8.52;4.28;;;0.60;99.90;;;;;;10207182;23;20001;-80
2023/01/25 16:14:27;;;;;;;10.48;3.75;;;0.50;99.90;;;;;;10207768;23;20005;-80
2023/01/25 16:18:28;;;;;;;12.18;4.13;;;0.40;99.90;;;;;;10207075;23;20463;-81
2023/01/25 16:22:28;;;;;;;2.17;1.33;;;0.40;99.90;;;;;;10211065;23;20056;-82
2023/01/25 16:26:29;;;;;;;10.45;5.93;;;0.50;99.90;;;;;;10208898;23;20321;-80
2023/01/25 16:30:32;;;;;;;11.68;3.75;;;0.40;99.90;;;;;;10206351;23;20005;-79
2023/01/25 16:34:34;;;;;;;8.57;3.92;;;0.50;99.90;;;;;;10208137;23;20021;-80
2023/01/25 16:38:35;;;;;;;13.63;5.28;;;0.50;99.90;;;;;;10206232;23;20277;-80
2023/01/25 16:42:35;;;;;;;6.05;3.20;;;0.40;99.90;;;;;;10206585;23;20009;-79
2023/01/25 16:46:36;;;;;;;3.55;2.17;;;0.50;99.90;;;;;;10207229;23;20009;-78
2023/01/25 16:50:36;;;;;;;11.02;4.80;;;0.40;99.90;;;;;;10207999;23;20061;-80
2023/01/25 16:54:37;;;;;;;9.52;2.63;;;0.30;99.90;;;;;;10208181;23;20005;-78
2023/01/25 16:58:37;;;;;;;9.23;4.03;;;0.30;99.90;;;;;;10234420;23;20005;-79
2023/01/25 17:02:39;;;;;;;13.52;6.05;;;0.30;99.90;;;;;;10208433;23;20001;-79
2023/01/25 17:06:44;;;;;;;10.25;5.18;;;0.30;99.90;;;;;;10233625;23;20510;-79
2023/01/25 17:10:44;;;;;;;5.25;2.50;;;0.30;99.90;;;;;;10207064;23;20012;-79
2023/01/25 17:14:45;;;;;;;9.35;3.55;;;0.60;99.90;;;;;;10207346;23;20504;-80
2023/01/25 17:18:46;;;;;;;7.40;3.15;;;0.40;99.90;;;;;;10234656;23;20338;-81
2023/01/25 17:22:49;;;;;;;1.45;0.85;;;0.40;99.90;;;;;;10209147;23;20060;-80
2023/01/25 17:26:54;;;;;;;4.80;3.10;;;0.40;99.90;;;;;;10210903;23;20001;-78
2023/01/25 17:30:54;;;;;;;7.20;3.10;;;0.30;99.90;;;;;;10235371;23;20082;-79
2023/01/25 17:34:57;;;;;;;7.88;4.70;;;0.20;99.90;;;;;;10208016;23;20447;-80
2023/01/25 17:39:05;;;;;;;7.25;3.88;;;0.20;99.90;;;;;;10208303;23;20024;-79
2023/01/25 17:43:06;;;;;;;1.55;0.65;;;0.30;99.90;;;;;;10206290;23;20351;-79
2023/01/25 17:47:06;;;;;;;2.47;1.25;;;0.20;99.90;;;;;;10205896;23;20005;-79
2023/01/25 17:51:07;;;;;;;8.90;3.05;;;0.20;99.90;;;;;;10205854;23;20388;-79
2023/01/25 17:55:08;;;;;;;14.27;6.07;;;0.20;99.90;;;;;;10205673;23;20005;-80
2023/01/25 17:59:10;;;;;;;8.82;3.85;;;0.20;99.90;;;;;;10204506;23;20016;-81
2023/01/25 18:03:12;;;;;;;13.60;5.32;;;0.30;99.90;;;;;;10207856;23;20044;-80
2023/01/25 18:07:13;;;;;;;11.50;4.07;;;0.40;99.90;;;;;;10232110;23;20001;-80
2023/01/25 18:11:16;;;;;;;15.18;5.50;;;0.40;99.90;;;;;;10208371;23;20092;-79
2023/01/25 18:15:19;;;;;;;14.70;6.57;;;0.30;99.90;;;;;;10232995;23;20009;-81
2023/01/25 18:19:20;;;;;;;13.05;5.80;;;0.30;99.90;;;;;;10207536;23;20020;-80
2023/01/25 18:23:21;;;;;;;12.77;5.60;;;0.20;99.90;;;;;;10233796;23;20446;-81
2023/01/25 18:27:25;;;;;;;10.18;5.18;;;0.30;99.90;;;;;;10234279;23;20096;-81
2023/01/25 18:31:26;;;;;;;8.43;3.55;;;0.40;99.90;;;;;;10233110;23;20005;-80
2023/01/25 18:35:28;;;;;;;12.20;5.57;;;0.40;99.90;;;;;;10233747;23;20020;-80
2023/01/25 18:39:29;;;;;;;2.28;1.35;;;0.20;99.90;;;;;;10206263;23;20510;-80
2023/01/25 18:43:29;;;;;;;12.63;5.82;;;0.20;99.90;;;;;;10207200;23;20005;-80
2023/01/25 18:47:30;;;;;;;8.48;4.93;;;0.10;99.90;;;;;;10208711;23;20008;-80
2023/01/25 18:51:31;;;;;;;8.63;3.53;;;0.10;99.90;;;;;;10208246;23;20013;-79
2023/01/25 18:55:32;;;;;;;10.15;4.88;;;0.10;99.90;;;;;;10207614;23;20605;-80
2023/01/25 18:59:32;;;;;;;10.15;5.40;;;0.10;99.90;;;;;;10207846;23;20093;-80
2023/01/25 19:03:33;;;;;;;11.65;5.38;;;0.10;99.90;;;;;;10233318;23;20005;-80
2023/01/25 19:07:34;;;;;;;10.63;4.93;;;0.20;99.90;;;;;;10205292;23;20017;-80
2023/01/25 19:11:35;;;;;;;8.13;3.42;;;0.10;99.90;;;;;;10206135;23;20160;-79
2023/01/25 19:15:35;;;;;;;16.95;5.15;;;0.10;99.90;;;;;;10233272;23;20012;-80
2023/01/25 19:19:36;;;;;;;4.90;2.50;;;0.00;99.90;;;;;;10206334;23;20959;-79
2023/01/25 19:23:38;;;;;;;8.85;4.90;;;0.10;99.90;;;;;;10231914;23;20001;-79
2023/01/25 19:27:38;;;;;;;12.38;5.90;;;0.10;99.90;;;;;;10204170;23;20013;-79
2023/01/25 19:31:39;;;;;;;14.77;4.63;;;0.10;99.90;;;;;;10231733;23;20016;-78
2023/01/25 19:35:39;;;;;;;5.22;3.42;;;0.10;99.90;;;;;;10231640;23;20540;-79
2023/01/25 19:39:40;;;;;;;11.68;5.25;;;0.10;99.90;;;;;;10231004;23;20060;-79
2023/01/25 19:43:41;;;;;;;14.13;4.97;;;0.10;99.90;;;;;;10204566;23;20141;-79
2023/01/25 19:47:42;;;;;;;16.70;6.60;;;0.20;99.90;;;;;;10205349;23;20009;-80
2023/01/25 19:51:47;;;;;;;3.83;2.45;;;0.10;99.90;;;;;;10204542;23;20068;-79
2023/01/25 19:55:48;;;;;;;10.43;5.75;;;0.20;99.90;;;;;;10204481;23;20009;-78
2023/01/25 19:59:48;;;;;;;1.65;1.50;;;0.00;99.90;;;;;;10203781;23;20522;-78
2023/01/25 20:03:49;;;;;;;14.43;5.40;;;0.00;99.90;;;;;;10229362;23;20001;-78
2023/01/25 20:07:50;;;;;;;7.72;3.70;;;-0.10;99.90;;;;;;10203450;23;20016;-78
2023/01/25 20:11:53;;;;;;;2.20;1.67;;;0.00;99.90;;;;;;10204593;23;20380;-78
2023/01/25 20:15:54;;;;;;;1.60;1.45;;;0.00;99.90;;;;;;10229979;23;20092;-78
2023/01/25 20:19:54;;;;;;;19.90;6.95;;;-0.10;99.90;;;;;;10230077;23;20036;-78
2023/01/25 20:23:59;;;;;;;33.70;12.70;;;-0.10;99.90;;;;;;10204366;23;20384;-79
2023/01/25 20:28:00;;;;;;;42.05;15.35;;;-0.10;99.90;;;;;;10203582;23;20023;-79
2023/01/25 20:32:02;;;;;;;24.25;9.32;;;-0.10;99.90;;;;;;10203483;23;20028;-79
2023/01/25 20:36:04;;;;;;;20.77;7.50;;;0.10;99.90;;;;;;10202281;23;20005;-78
2023/01/25 20:40:05;;;;;;;19.25;8.90;;;0.20;99.90;;;;;;10228681;23;20005;-78
2023/01/25 20:44:07;;;;;;;13.88;5.95;;;0.10;99.90;;;;;;10228060;23;20001;-78
2023/01/25 20:48:07;;;;;;;9.38;5.63;;;0.10;99.90;;;;;;10203555;23;20013;-79
2023/01/25 20:52:11;;;;;;;7.82;4.47;;;0.50;99.90;;;;;;10228746;23;20015;-78
2023/01/25 20:56:13;;;;;;;13.57;4.65;;;0.30;99.90;;;;;;10204150;23;20016;-78
2023/01/25 21:00:15;;;;;;;21.20;8.13;;;0.20;99.90;;;;;;10230368;23;19997;-78
2023/01/25 21:04:15;;;;;;;14.18;6.70;;;0.10;99.90;;;;;;10229670;23;20032;-78
2023/01/25 21:08:17;;;;;;;10.73;5.05;;;0.10;99.90;;;;;;10204227;23;20016;-78